createdAt,value
2023-04-19T00:00:12.685Z,101089.59
2023-04-19T00:02:42.763Z,101098.56
2023-04-19T00:05:13.603Z,101092.38
2023-04-19T00:07:41.653Z,101080.97
2023-04-19T00:10:10.155Z,101092.34
2023-04-19T00:12:38.030Z,101081.66
2023-04-19T00:15:06.876Z,101079.00
2023-04-19T00:17:35.181Z,101079.16
2023-04-19T00:20:04.425Z,101075.75
2023-04-19T00:22:32.612Z,101079.13
2023-04-19T00:25:01.173Z,101072.22
2023-04-19T00:27:28.884Z,101067.84
2023-04-19T00:29:57.708Z,101064.47
2023-04-19T00:32:26.228Z,101073.38
2023-04-19T00:34:54.293Z,101077.84
2023-04-19T00:37:22.793Z,101064.97
2023-04-19T00:39:50.611Z,101062.38
2023-04-19T00:42:18.715Z,101090.53
2023-04-19T00:44:47.960Z,101089.66
2023-04-19T00:47:16.988Z,101082.56
2023-04-19T00:49:46.882Z,101085.25
2023-04-19T00:52:14.641Z,101084.66
2023-04-19T00:54:45.226Z,101079.38
2023-04-19T00:57:16.702Z,101078.59
2023-04-19T00:59:44.829Z,101075.94
2023-04-19T01:02:13.000Z,101083.78
2023-04-19T01:04:41.022Z,101073.97
2023-04-19T01:07:09.396Z,101065.13
2023-04-19T01:09:41.930Z,101072.91
2023-04-19T01:12:09.725Z,101076.56
2023-04-19T01:14:37.431Z,101063.19
2023-04-19T01:17:06.019Z,101066.81
2023-04-19T01:19:34.956Z,101061.44
2023-04-19T01:22:03.962Z,101066.72
2023-04-19T01:24:31.872Z,101057.09
2023-04-19T01:26:59.727Z,101064.13
2023-04-19T01:29:28.902Z,101070.41
2023-04-19T01:31:56.559Z,101063.31
2023-04-19T01:34:24.309Z,101054.44
2023-04-19T01:36:52.052Z,101051.84
2023-04-19T01:39:19.797Z,101058.06
2023-04-19T01:41:47.604Z,101051.94
2023-04-19T01:44:15.513Z,101054.63
2023-04-19T01:46:43.477Z,101045.88
2023-04-19T01:49:11.189Z,101040.56
2023-04-19T01:51:39.430Z,101038.03
2023-04-19T01:54:07.151Z,101045.19
2023-04-19T01:56:35.061Z,101024.88
2023-04-19T01:59:04.033Z,101029.41
2023-04-19T02:01:32.232Z,101023.28
2023-04-19T02:04:00.330Z,101019.72
2023-04-19T02:06:28.159Z,101017.94
2023-04-19T02:08:55.879Z,101011.88
2023-04-19T02:11:23.924Z,100999.41
2023-04-19T02:13:51.690Z,101003.09
2023-04-19T02:16:19.541Z,101003.03
2023-04-19T02:18:48.264Z,101004.75
2023-04-19T02:21:16.082Z,101009.22
2023-04-19T02:23:48.603Z,101007.56
2023-04-19T02:26:16.647Z,100998.78
2023-04-19T02:28:44.449Z,101007.66
2023-04-19T02:31:13.639Z,100996.22
2023-04-19T02:33:41.469Z,100996.22
2023-04-19T02:36:09.710Z,100993.53
2023-04-19T02:38:37.464Z,100996.28
2023-04-19T02:41:06.187Z,100996.34
2023-04-19T02:43:34.004Z,100983.91
2023-04-19T02:46:02.431Z,100983.91
2023-04-19T02:48:30.405Z,100984.94
2023-04-19T02:50:58.328Z,100983.31
2023-04-19T02:53:26.158Z,100987.63
2023-04-19T02:55:53.922Z,100986.75
2023-04-19T02:58:21.916Z,100987.72
2023-04-19T03:01:00.538Z,100987.72
2023-04-19T03:03:28.661Z,100989.53
2023-04-19T03:05:56.560Z,100976.34
2023-04-19T03:08:24.307Z,100982.53
2023-04-19T03:10:52.041Z,100989.72
2023-04-19T03:13:19.919Z,100985.31
2023-04-19T03:15:48.241Z,100988.97
2023-04-19T03:18:17.241Z,100982.75
2023-04-19T03:20:44.982Z,100977.41
2023-04-19T03:23:12.729Z,100981.97
2023-04-19T03:25:41.171Z,100982.81
2023-04-19T03:28:25.979Z,100982.75
2023-04-19T03:31:28.939Z,100986.28
2023-04-19T03:33:56.893Z,100982.69
2023-04-19T03:36:29.773Z,100975.47
2023-04-19T03:38:58.003Z,100969.25
2023-04-19T03:41:27.345Z,100967.47
2023-04-19T03:44:24.185Z,100958.78
2023-04-19T03:46:52.028Z,100967.47
2023-04-19T03:49:24.126Z,100974.63
2023-04-19T03:52:01.159Z,100959.63
2023-04-19T03:54:29.049Z,100962.25
2023-04-19T03:56:57.110Z,100949.91
2023-04-19T03:59:25.440Z,100962.34
2023-04-19T04:01:53.813Z,100970.16
2023-04-19T04:04:22.091Z,100968.47
2023-04-19T04:06:50.459Z,100967.69
2023-04-19T04:09:18.375Z,100965.94
2023-04-19T04:11:46.157Z,100970.50
2023-04-19T04:14:14.375Z,100956.25
2023-04-19T04:16:42.522Z,100962.56
2023-04-19T04:19:10.834Z,100957.41
2023-04-19T04:21:41.913Z,100967.22
2023-04-19T04:24:10.368Z,100967.13
2023-04-19T04:26:45.012Z,100965.38
2023-04-19T04:29:29.058Z,100965.41
2023-04-19T04:31:59.681Z,100968.09
2023-04-19T04:34:33.362Z,100968.94
2023-04-19T04:37:08.799Z,100956.53
2023-04-19T04:39:39.800Z,100964.47
2023-04-19T04:42:10.000Z,100970.75
2023-04-19T04:44:38.972Z,100968.06
2023-04-19T04:47:08.231Z,100969.97
2023-04-19T04:49:42.495Z,100962.81
2023-04-19T04:52:10.294Z,100969.81
2023-04-19T04:54:50.844Z,100968.16
2023-04-19T04:57:28.796Z,100967.28
2023-04-19T04:59:56.676Z,100970.81
2023-04-19T05:02:28.264Z,100970.81
2023-04-19T05:04:56.701Z,100961.94
2023-04-19T05:07:24.497Z,100969.97
2023-04-19T05:09:52.387Z,100973.50
2023-04-19T05:12:25.314Z,100972.63
2023-04-19T05:14:53.410Z,100978.91
2023-04-19T05:17:21.233Z,100976.16
2023-04-19T05:19:51.089Z,100980.56
2023-04-19T05:22:18.970Z,100975.16
2023-04-19T05:24:47.329Z,100968.91
2023-04-19T05:27:17.087Z,100976.88
2023-04-19T05:29:44.845Z,100987.56
2023-04-19T05:32:12.612Z,100975.16
2023-04-19T05:34:55.987Z,100982.31
2023-04-19T05:37:24.568Z,100979.47
2023-04-19T05:39:52.335Z,100969.78
2023-04-19T05:42:20.598Z,100987.41
2023-04-19T05:44:48.325Z,100986.41
2023-04-19T05:47:19.810Z,100982.84
2023-04-19T05:50:14.056Z,100983.03
2023-04-19T05:52:47.588Z,100984.13
2023-04-19T05:55:15.464Z,100979.63
2023-04-19T05:57:46.671Z,100992.25
2023-04-19T06:00:18.409Z,100986.06
2023-04-19T06:03:00.712Z,100991.38
2023-04-19T06:05:28.629Z,100976.34
2023-04-19T06:08:02.845Z,100990.22
2023-04-19T06:10:44.529Z,100981.19
2023-04-19T06:13:19.689Z,100989.91
2023-04-19T06:15:53.358Z,100983.53
2023-04-19T06:18:21.173Z,100984.28
2023-04-19T06:20:51.186Z,100983.25
2023-04-19T06:23:18.907Z,100987.50
2023-04-19T06:25:48.721Z,100990.13
2023-04-19T06:28:16.856Z,100988.25
2023-04-19T06:30:45.392Z,100993.25
2023-04-19T06:33:13.471Z,101000.25
2023-04-19T06:35:41.174Z,100986.91
2023-04-19T06:38:10.332Z,100998.09
2023-04-19T06:40:38.093Z,100996.97
2023-04-19T06:43:07.707Z,101002.16
2023-04-19T06:45:38.165Z,101005.38
2023-04-19T06:48:06.234Z,100983.13
2023-04-19T06:50:36.244Z,100978.41
2023-04-19T06:53:05.018Z,100983.44
2023-04-19T06:55:34.497Z,100986.78
2023-04-19T06:58:06.514Z,100991.00
2023-04-19T07:00:38.276Z,100987.97
2023-04-19T07:03:06.291Z,101001.00
2023-04-19T07:05:34.085Z,100975.94
2023-04-19T07:08:02.347Z,100986.34
2023-04-19T07:10:30.632Z,100975.53
2023-04-19T07:12:58.358Z,100973.44
2023-04-19T07:15:29.930Z,100974.88
2023-04-19T07:17:58.079Z,100977.28
2023-04-19T07:20:25.913Z,100967.31
2023-04-19T07:22:57.596Z,100968.78
2023-04-19T07:25:25.654Z,100971.25
2023-04-19T07:27:56.627Z,100955.34
2023-04-19T07:30:26.318Z,100956.69
2023-04-19T07:32:54.699Z,100967.03
2023-04-19T07:35:22.468Z,100963.56
2023-04-19T07:37:50.344Z,100974.69
2023-04-19T07:40:18.196Z,100968.25
2023-04-19T07:42:47.366Z,100969.94
2023-04-19T07:45:16.915Z,100953.91
2023-04-19T07:47:46.092Z,100969.56
2023-04-19T07:50:13.789Z,100967.75
2023-04-19T07:52:41.599Z,100956.91
2023-04-19T07:55:12.390Z,100957.50
2023-04-19T07:57:40.126Z,100951.19
2023-04-19T08:00:10.428Z,100947.34
2023-04-19T08:02:48.563Z,100942.63
2023-04-19T08:05:18.592Z,100938.06
2023-04-19T08:07:46.822Z,100948.66
2023-04-19T08:10:15.878Z,100939.78
2023-04-19T08:12:57.417Z,100940.19
2023-04-19T08:18:05.949Z,100932.56
2023-04-19T08:20:34.192Z,100939.38
2023-04-19T08:23:10.547Z,100937.34
2023-04-19T08:25:48.078Z,100943.34
2023-04-19T08:28:16.471Z,100935.72
2023-04-19T08:30:44.179Z,100941.38
2023-04-19T08:33:12.579Z,100941.69
2023-04-19T08:35:41.510Z,100936.84
2023-04-19T08:38:10.960Z,100937.78
2023-04-19T08:40:51.866Z,100931.38
2023-04-19T08:43:20.879Z,100938.72
2023-04-19T08:45:51.017Z,100940.38
2023-04-19T08:48:20.000Z,100937.06
2023-04-19T08:51:04.315Z,100935.69
2023-04-19T08:53:37.742Z,100931.41
2023-04-19T08:56:18.084Z,100940.06
2023-04-19T08:59:11.054Z,100930.81
2023-04-19T09:01:50.175Z,100922.22
2023-04-19T09:04:35.704Z,100922.75
2023-04-19T09:07:04.497Z,100924.06
2023-04-19T09:09:39.110Z,100923.69
2023-04-19T09:12:18.959Z,100926.22
2023-04-19T09:15:01.108Z,100914.16
2023-04-19T09:17:32.312Z,100916.84
2023-04-19T09:20:00.361Z,100921.47
2023-04-19T09:22:28.063Z,100920.94
2023-04-19T09:27:35.573Z,100919.69
2023-04-19T09:30:05.155Z,100907.34
2023-04-19T09:32:49.439Z,100909.66
2023-04-19T09:35:18.824Z,100908.38
2023-04-19T09:38:06.848Z,100899.75
2023-04-19T09:40:36.738Z,100896.66
2023-04-19T09:43:28.994Z,100895.50
2023-04-19T09:45:56.033Z,100902.75
2023-04-19T09:48:23.765Z,100889.72
2023-04-19T09:51:05.805Z,100893.72
2023-04-19T09:53:38.609Z,100884.09
2023-04-19T09:56:12.765Z,100888.28
2023-04-19T09:58:50.839Z,100873.97
2023-04-19T10:01:24.156Z,100875.41
2023-04-19T10:03:53.454Z,100854.31
2023-04-19T10:08:56.116Z,100849.53
2023-04-19T10:11:37.609Z,100851.50
2023-04-19T10:14:12.612Z,100856.88
2023-04-19T10:16:40.805Z,100850.78
2023-04-19T10:19:19.202Z,100851.66
2023-04-19T10:21:51.269Z,100849.63
2023-04-19T10:24:19.750Z,100844.78
2023-04-19T10:27:11.502Z,100849.84
2023-04-19T10:29:59.653Z,100844.91
2023-04-19T10:32:32.727Z,100843.16
2023-04-19T10:35:08.448Z,100842.22
2023-04-19T10:37:44.651Z,100833.25
2023-04-19T10:40:57.763Z,100837.00
2023-04-19T10:43:29.477Z,100835.44
2023-04-19T10:46:20.572Z,100833.78
2023-04-19T10:48:56.918Z,100826.28
2023-04-19T10:51:41.863Z,100819.38
2023-04-19T10:54:32.741Z,100818.72
2023-04-19T10:57:06.308Z,100824.53
2023-04-19T10:59:42.273Z,100814.31
2023-04-19T11:02:24.803Z,100804.88
2023-04-19T11:04:53.470Z,100806.16
2023-04-19T11:07:21.425Z,100800.28
2023-04-19T11:09:55.673Z,100799.59
2023-04-19T11:12:23.800Z,100793.69
2023-04-19T11:14:56.844Z,100792.94
2023-04-19T11:17:32.453Z,100774.84
2023-04-19T11:20:09.920Z,100777.69
2023-04-19T11:22:41.889Z,100785.06
2023-04-19T11:25:22.497Z,100790.53
2023-04-19T11:27:54.913Z,100786.28
2023-04-19T11:30:34.539Z,100788.19
2023-04-19T11:33:04.135Z,100783.16
2023-04-19T11:35:32.129Z,100772.75
2023-04-19T11:38:00.356Z,100782.09
2023-04-19T11:40:29.232Z,100775.41
2023-04-19T11:43:03.040Z,100779.91
2023-04-19T11:45:39.858Z,100769.53
2023-04-19T11:48:17.361Z,100768.56
2023-04-19T11:50:49.513Z,100772.00
2023-04-19T11:53:25.334Z,100774.53
2023-04-19T11:55:56.697Z,100774.63
2023-04-19T11:58:33.107Z,100769.66
2023-04-19T12:01:09.762Z,100763.94
2023-04-19T12:03:57.613Z,100760.47
2023-04-19T12:06:32.103Z,100776.13
2023-04-19T12:09:00.203Z,100775.41
2023-04-19T12:11:45.560Z,100764.66
2023-04-19T12:14:22.187Z,100758.00
2023-04-19T12:17:16.780Z,100766.19
2023-04-19T12:19:47.445Z,100766.41
2023-04-19T12:22:20.755Z,100760.41
2023-04-19T12:24:53.444Z,100763.28
2023-04-19T12:27:21.786Z,100760.91
2023-04-19T12:29:49.542Z,100753.91
2023-04-19T12:32:23.119Z,100756.72
2023-04-19T12:34:55.854Z,100753.91
2023-04-19T12:37:29.942Z,100755.00
2023-04-19T12:39:59.139Z,100756.72
2023-04-19T12:42:26.922Z,100750.34
2023-04-19T12:44:55.779Z,100752.84
2023-04-19T12:47:23.725Z,100763.59
2023-04-19T12:49:53.092Z,100770.31
2023-04-19T12:52:26.317Z,100756.56
2023-04-19T12:54:54.219Z,100759.66
2023-04-19T12:57:21.955Z,100752.00
2023-04-19T12:59:49.965Z,100754.81
2023-04-19T13:02:18.014Z,100740.63
2023-04-19T13:04:46.085Z,100757.75
2023-04-19T13:07:14.069Z,100750.00
2023-04-19T13:09:41.737Z,100742.28
2023-04-19T13:12:09.563Z,100747.88
2023-04-19T13:14:37.210Z,100743.59
2023-04-19T13:17:04.928Z,100736.81
2023-04-19T13:19:32.685Z,100735.22
2023-04-19T13:22:04.423Z,100732.09
2023-04-19T13:24:32.708Z,100722.88
2023-04-19T13:27:00.410Z,100711.78
2023-04-19T13:29:30.232Z,100722.50
2023-04-19T13:31:58.222Z,100715.50
2023-04-19T13:34:26.375Z,100707.38
2023-04-19T13:36:54.034Z,100710.69
2023-04-19T13:39:21.756Z,100699.75
2023-04-19T13:41:51.701Z,100691.56
2023-04-19T13:44:21.112Z,100690.31
2023-04-19T13:46:48.904Z,100672.72
2023-04-19T13:49:19.909Z,100674.84
2023-04-19T13:51:50.953Z,100670.09
2023-04-19T13:54:19.861Z,100667.09
2023-04-19T13:56:51.946Z,100669.47
2023-04-19T13:59:28.237Z,100662.13
2023-04-19T14:01:59.252Z,100660.19
2023-04-19T14:04:27.289Z,100658.81
2023-04-19T14:06:55.190Z,100653.22
2023-04-19T14:09:22.956Z,100650.13
2023-04-19T14:11:52.475Z,100646.09
2023-04-19T14:14:20.889Z,100645.06
2023-04-19T14:16:53.935Z,100630.69
2023-04-19T14:19:23.667Z,100636.91
2023-04-19T14:21:51.396Z,100630.53
2023-04-19T14:24:19.159Z,100629.50
2023-04-19T14:26:52.045Z,100624.94
2023-04-19T14:29:27.089Z,100622.00
2023-04-19T14:31:54.835Z,100627.28
2023-04-19T14:34:22.917Z,100622.00
2023-04-19T14:36:51.642Z,100617.16
2023-04-19T14:39:19.555Z,100608.75
2023-04-19T14:41:47.313Z,100601.16
2023-04-19T14:44:14.949Z,100595.38
2023-04-19T14:46:42.662Z,100591.41
2023-04-19T14:49:12.090Z,100596.97
2023-04-19T14:51:39.884Z,100590.28
2023-04-19T14:54:08.084Z,100586.91
2023-04-19T14:56:38.356Z,100584.91
2023-04-19T14:59:08.163Z,100587.41
2023-04-19T15:01:36.008Z,100578.91
2023-04-19T15:04:08.989Z,100571.44
2023-04-19T15:06:37.052Z,100578.03
2023-04-19T15:09:05.254Z,100566.72
2023-04-19T15:11:33.492Z,100568.78
2023-04-19T15:14:01.232Z,100569.41
2023-04-19T15:16:29.181Z,100562.69
2023-04-19T15:18:57.194Z,100565.25
2023-04-19T15:21:28.219Z,100562.69
2023-04-19T15:23:55.944Z,100569.44
2023-04-19T15:26:24.463Z,100569.44
2023-04-19T15:28:53.130Z,100599.38
2023-04-19T15:31:21.264Z,100594.69
2023-04-19T15:33:50.879Z,100616.44
2023-04-19T15:36:18.618Z,100616.25
2023-04-19T15:38:47.373Z,100617.19
2023-04-19T15:41:15.473Z,100611.94
2023-04-19T15:43:43.118Z,100614.78
2023-04-19T15:46:13.878Z,100611.66
2023-04-19T15:48:45.637Z,100594.19
2023-04-19T15:51:16.084Z,100584.97
2023-04-19T15:53:45.349Z,100605.16
2023-04-19T15:56:13.180Z,100602.38
2023-04-19T15:58:42.273Z,100595.06
2023-04-19T16:01:14.925Z,100594.38
2023-04-19T16:03:44.970Z,100588.56
2023-04-19T16:06:13.689Z,100595.97
2023-04-19T16:08:41.453Z,100575.94
2023-04-19T16:11:09.738Z,100581.88
2023-04-19T16:13:39.710Z,100583.75
2023-04-19T16:16:07.526Z,100582.94
2023-04-19T16:18:36.785Z,100578.44
2023-04-19T16:21:04.898Z,100575.66
2023-04-19T16:23:32.633Z,100575.47
2023-04-19T16:26:00.341Z,100586.72
2023-04-19T16:28:28.131Z,100576.63
2023-04-19T16:30:56.918Z,100586.06
2023-04-19T16:33:24.875Z,100582.34
2023-04-19T16:35:54.342Z,100576.78
2023-04-19T16:38:22.280Z,100582.84
2023-04-19T16:40:50.138Z,100582.81
2023-04-19T16:43:22.050Z,100578.44
2023-04-19T16:45:49.898Z,100573.22
2023-04-19T16:48:20.533Z,100573.31
2023-04-19T16:50:49.612Z,100572.25
2023-04-19T16:53:17.397Z,100581.00
2023-04-19T16:55:45.184Z,100582.72
2023-04-19T16:58:13.973Z,100578.19
2023-04-19T17:00:41.793Z,100584.34
2023-04-19T17:03:09.829Z,100584.19
2023-04-19T17:05:37.806Z,100580.56
2023-04-19T17:08:12.102Z,100588.53
2023-04-19T17:10:39.962Z,100581.25
2023-04-19T17:13:07.692Z,100591.88
2023-04-19T17:15:37.475Z,100587.28
2023-04-19T17:18:06.139Z,100586.53
2023-04-19T17:20:37.588Z,100587.41
2023-04-19T17:23:05.832Z,100589.28
2023-04-19T17:25:35.393Z,100585.88
2023-04-19T17:28:05.931Z,100587.53
2023-04-19T17:30:33.663Z,100576.13
2023-04-19T17:33:03.590Z,100583.41
2023-04-19T17:35:31.782Z,100586.47
2023-04-19T17:38:01.221Z,100581.31
2023-04-19T17:40:29.537Z,100598.38
2023-04-19T17:42:57.626Z,100591.47
2023-04-19T17:45:25.362Z,100592.53
2023-04-19T17:47:55.730Z,100595.59
2023-04-19T17:50:24.599Z,100592.38
2023-04-19T17:52:53.845Z,100595.22
2023-04-19T17:55:21.818Z,100597.47
2023-04-19T17:57:49.581Z,100598.84
2023-04-19T18:00:17.806Z,100598.41
2023-04-19T18:02:45.693Z,100605.00
2023-04-19T18:05:15.196Z,100599.28
2023-04-19T18:07:42.892Z,100600.59
2023-04-19T18:10:11.153Z,100608.75
2023-04-19T18:12:38.845Z,100611.59
2023-04-19T18:15:08.546Z,100608.31
2023-04-19T18:17:36.391Z,100613.69
2023-04-19T18:20:08.548Z,100604.06
2023-04-19T18:22:38.086Z,100600.72
2023-04-19T18:25:06.447Z,100617.59
2023-04-19T18:27:34.228Z,100617.78
2023-04-19T18:30:04.000Z,100622.31
2023-04-19T18:32:32.741Z,100616.28
2023-04-19T18:35:00.651Z,100629.63
2023-04-19T18:37:28.395Z,100643.88
2023-04-19T18:39:56.369Z,100635.19
2023-04-19T18:42:24.013Z,100634.34
2023-04-19T18:44:54.522Z,100639.84
2023-04-19T18:47:26.759Z,100634.41
2023-04-19T18:50:03.585Z,100645.16
2023-04-19T18:52:36.086Z,100638.13
2023-04-19T18:55:06.133Z,100635.50
2023-04-19T18:57:35.385Z,100642.56
2023-04-19T19:00:06.076Z,100652.31
2023-04-19T19:02:36.050Z,100657.75
2023-04-19T19:05:07.573Z,100660.31
2023-04-19T19:07:37.493Z,100654.09
2023-04-19T19:10:18.342Z,100662.16
2023-04-19T19:12:50.037Z,100661.41
2023-04-19T19:15:19.654Z,100664.84
2023-04-19T19:17:49.793Z,100656.84
2023-04-19T19:20:19.671Z,100665.75
2023-04-19T19:22:51.297Z,100675.53
2023-04-19T19:25:19.490Z,100676.41
2023-04-19T19:28:05.514Z,100667.59
2023-04-19T19:30:40.288Z,100677.41
2023-04-19T19:33:08.263Z,100675.66
2023-04-19T19:35:36.081Z,100673.97
2023-04-19T19:38:04.062Z,100676.59
2023-04-19T19:40:32.874Z,100676.63
2023-04-19T19:43:01.903Z,100681.16
2023-04-19T19:45:31.092Z,100675.88
2023-04-19T19:48:00.144Z,100671.59
2023-04-19T19:53:02.795Z,100664.56
2023-04-19T19:55:32.066Z,100664.63
2023-04-19T20:03:01.547Z,100672.06
2023-04-19T20:05:31.300Z,100666.81
2023-04-19T20:08:12.545Z,100665.16
2023-04-19T20:10:42.832Z,100658.44
2023-04-19T20:13:12.889Z,100665.69
2023-04-19T20:15:41.298Z,100670.53
2023-04-19T20:18:09.101Z,100671.69
2023-04-19T20:20:39.156Z,100679.09
2023-04-19T20:23:06.843Z,100667.16
2023-04-19T20:25:34.897Z,100667.44
2023-04-19T20:28:03.503Z,100680.94
2023-04-19T20:30:31.695Z,100681.22
2023-04-19T20:33:00.412Z,100668.19
2023-04-19T20:35:28.708Z,100669.25
2023-04-19T20:38:02.638Z,100668.50
2023-04-19T20:40:32.161Z,100676.69
2023-04-19T20:42:59.954Z,100680.34
2023-04-19T20:45:27.895Z,100676.09
2023-04-19T20:47:55.725Z,100677.88
2023-04-19T20:50:23.699Z,100685.13
2023-04-19T20:52:51.681Z,100672.09
2023-04-19T20:55:20.676Z,100676.75
2023-04-19T20:57:48.424Z,100675.19
2023-04-19T21:00:16.805Z,100682.34
2023-04-19T21:02:45.365Z,100681.66
2023-04-19T21:05:13.311Z,100684.22
2023-04-19T21:07:41.033Z,100676.31
2023-04-19T21:10:11.284Z,100684.41
2023-04-19T21:12:39.041Z,100679.19
2023-04-19T21:15:07.405Z,100675.72
2023-04-19T21:17:36.432Z,100669.69
2023-04-19T21:20:11.879Z,100679.56
2023-04-19T21:22:41.184Z,100676.22
2023-04-19T21:25:10.360Z,100666.69
2023-04-19T21:27:38.699Z,100667.75
2023-04-19T21:30:08.086Z,100670.56
2023-04-19T21:32:35.969Z,100663.81
2023-04-19T21:35:04.176Z,100674.44
2023-04-19T21:37:32.040Z,100660.53
2023-04-19T21:39:59.804Z,100661.56
2023-04-19T21:42:27.592Z,100655.44
2023-04-19T21:44:55.499Z,100662.53
2023-04-19T21:47:23.771Z,100657.38
2023-04-19T21:49:53.168Z,100652.13
2023-04-19T21:52:21.787Z,100657.44
2023-04-19T21:54:49.697Z,100654.03
2023-04-19T21:57:21.776Z,100658.38
2023-04-19T21:59:49.468Z,100656.56
2023-04-19T22:02:17.616Z,100658.31
2023-04-19T22:04:45.764Z,100654.78
2023-04-19T22:07:13.499Z,100658.25
2023-04-19T22:09:41.498Z,100656.41
2023-04-19T22:12:09.843Z,100652.00
2023-04-19T22:14:37.913Z,100657.22
2023-04-19T22:17:06.160Z,100643.03
2023-04-19T22:19:33.818Z,100642.25
2023-04-19T22:22:01.549Z,100637.72
2023-04-19T22:24:29.244Z,100637.72
2023-04-19T22:26:57.281Z,100634.97
2023-04-19T22:29:25.096Z,100622.66
2023-04-19T22:31:52.909Z,100630.47
2023-04-19T22:34:20.709Z,100620.91
2023-04-19T22:36:48.563Z,100630.56
2023-04-19T22:39:17.435Z,100627.13
2023-04-19T22:41:45.534Z,100627.13
2023-04-19T22:44:13.222Z,100609.69
2023-04-19T22:46:41.034Z,100615.84
2023-04-19T22:49:10.069Z,100611.56
2023-04-19T22:51:38.324Z,100611.63
2023-04-19T22:54:06.058Z,100610.81
2023-04-19T22:56:33.799Z,100595.88
2023-04-19T22:59:01.503Z,100600.38
2023-04-19T23:01:29.337Z,100587.16
2023-04-19T23:03:57.187Z,100581.97
2023-04-19T23:06:24.905Z,100581.31
2023-04-19T23:08:52.741Z,100595.38
2023-04-19T23:11:25.815Z,100584.97
2023-04-19T23:13:53.973Z,100575.34
2023-04-19T23:16:25.369Z,100570.03
2023-04-19T23:18:53.220Z,100577.19
2023-04-19T23:21:21.182Z,100578.03
2023-04-19T23:23:50.834Z,100560.41
2023-04-19T23:26:18.569Z,100560.34
2023-04-19T23:28:46.360Z,100572.69
2023-04-19T23:31:14.287Z,100572.75
2023-04-19T23:33:42.122Z,100560.47
2023-04-19T23:36:09.827Z,100562.31
2023-04-19T23:38:37.574Z,100547.47
2023-04-19T23:41:05.501Z,100552.72
2023-04-19T23:43:33.230Z,100547.41
2023-04-19T23:46:01.204Z,100540.44
2023-04-19T23:48:28.966Z,100538.72
2023-04-19T23:50:56.649Z,100544.72
2023-04-19T23:53:24.343Z,100542.97
2023-04-19T23:55:52.073Z,100542.00
2023-04-19T23:58:19.932Z,100538.47
